createdAt,value
2022-11-28T00:01:51.558Z,-0.19
2022-11-28T00:04:18.864Z,-0.25
2022-11-28T00:06:50.264Z,-0.24
2022-11-28T00:09:19.545Z,-0.29
2022-11-28T00:11:48.704Z,-0.25
2022-11-28T00:14:17.484Z,-0.27
2022-11-28T00:16:45.284Z,-0.45
2022-11-28T00:19:13.859Z,-0.41
2022-11-28T00:21:42.113Z,-0.55
2022-11-28T00:24:09.933Z,-0.59
2022-11-28T00:26:41.233Z,-0.59
2022-11-28T00:29:09.628Z,-0.59
2022-11-28T00:31:43.135Z,-0.56
2022-11-28T00:34:12.765Z,-0.47
2022-11-28T00:36:40.396Z,-0.49
2022-11-28T00:39:07.634Z,-0.51
2022-11-28T00:41:35.518Z,-0.60
2022-11-28T00:44:03.215Z,-0.61
2022-11-28T00:46:30.953Z,-0.50
2022-11-28T00:48:59.130Z,-0.48
2022-11-28T00:51:32.469Z,-0.42
2022-11-28T00:54:02.104Z,-0.38
2022-11-28T00:56:38.074Z,-0.45
2022-11-28T00:59:05.813Z,-0.45
2022-11-28T01:01:40.405Z,-0.36
2022-11-28T01:04:10.169Z,-0.39
2022-11-28T01:06:43.879Z,-0.38
2022-11-28T01:09:15.748Z,-0.44
2022-11-28T01:11:45.235Z,-0.48
2022-11-28T01:14:13.569Z,-0.58
2022-11-28T01:16:41.271Z,-0.55
2022-11-28T01:19:08.760Z,-0.52
2022-11-28T01:21:36.364Z,-0.60
2022-11-28T01:24:03.854Z,-0.62
2022-11-28T01:26:31.580Z,-0.70
2022-11-28T01:29:00.258Z,-0.72
2022-11-28T01:31:30.373Z,-0.76
2022-11-28T01:33:58.763Z,-0.73
2022-11-28T01:36:26.707Z,-0.92
2022-11-28T01:38:54.124Z,-0.99
2022-11-28T01:41:24.732Z,-0.92
2022-11-28T01:44:03.240Z,-0.95
2022-11-28T01:46:31.082Z,-1.04
2022-11-28T01:49:03.728Z,-0.94
2022-11-28T01:51:31.979Z,-0.87
2022-11-28T01:54:00.004Z,-0.86
2022-11-28T01:56:31.653Z,-0.67
2022-11-28T01:59:04.374Z,-0.59
2022-11-28T02:01:32.198Z,-0.70
2022-11-28T02:04:00.245Z,-0.67
2022-11-28T02:06:28.184Z,-0.71
2022-11-28T02:08:56.319Z,-0.77
2022-11-28T02:11:42.498Z,-0.72
2022-11-28T02:14:12.675Z,-0.78
2022-11-28T02:16:58.204Z,-0.59
2022-11-28T02:20:01.565Z,-0.50
2022-11-28T02:22:28.993Z,-0.65
2022-11-28T02:25:18.903Z,-0.49
2022-11-28T02:28:27.120Z,-0.43
2022-11-28T02:31:37.921Z,-0.32
2022-11-28T02:34:22.591Z,-0.21
2022-11-28T02:37:08.514Z,-0.21
2022-11-28T02:39:53.853Z,-0.15
2022-11-28T02:42:32.264Z,-0.21
2022-11-28T02:45:04.640Z,-0.16
2022-11-28T02:47:41.254Z,-0.05
2022-11-28T02:50:13.562Z,0.03
2022-11-28T02:52:49.732Z,0.08
2022-11-28T02:55:17.603Z,-0.08
2022-11-28T02:57:50.314Z,0.06
2022-11-28T03:00:31.765Z,0.23
2022-11-28T03:03:20.493Z,0.34
2022-11-28T03:05:58.325Z,0.43
2022-11-28T03:08:38.763Z,0.40
2022-11-28T03:11:44.577Z,0.57
2022-11-28T03:14:39.398Z,0.63
2022-11-28T03:17:09.538Z,0.52
2022-11-28T03:20:21.788Z,0.64
2022-11-28T03:23:03.124Z,0.68
2022-11-28T03:25:38.439Z,0.61
2022-11-28T03:28:21.532Z,0.53
2022-11-28T03:30:55.289Z,0.50
2022-11-28T03:33:26.038Z,0.45
2022-11-28T03:36:00.852Z,0.43
2022-11-28T03:38:36.509Z,0.42
2022-11-28T03:41:11.154Z,0.24
2022-11-28T03:43:47.713Z,0.12
2022-11-28T03:46:19.211Z,0.03
2022-11-28T03:48:50.842Z,-0.08
2022-11-28T03:51:29.053Z,-0.18
2022-11-28T03:54:12.101Z,-0.23
2022-11-28T03:57:08.555Z,-0.24
2022-11-28T03:59:46.895Z,-0.32
2022-11-28T04:02:44.374Z,-0.42
2022-11-28T04:05:14.909Z,-0.54
2022-11-28T04:07:47.840Z,-0.67
2022-11-28T04:10:24.603Z,-0.79
2022-11-28T04:13:04.003Z,-0.99
2022-11-28T04:15:56.719Z,-0.91
2022-11-28T04:18:38.491Z,-1.20
2022-11-28T04:21:09.633Z,-1.14
2022-11-28T04:23:40.854Z,-1.22
2022-11-28T04:26:15.085Z,-1.18
2022-11-28T04:28:44.154Z,-1.18
2022-11-28T04:31:12.954Z,-1.21
2022-11-28T04:33:48.164Z,-1.24
2022-11-28T04:36:19.584Z,-1.20
2022-11-28T04:38:56.499Z,-1.05
2022-11-28T04:41:35.075Z,-0.93
2022-11-28T04:44:24.613Z,-1.04
2022-11-28T04:46:55.264Z,-0.93
2022-11-28T04:49:24.409Z,-1.02
2022-11-28T04:51:59.377Z,-0.87
2022-11-28T04:54:57.442Z,-0.80
2022-11-28T04:57:37.403Z,-0.82
2022-11-28T05:00:08.970Z,-0.77
2022-11-28T05:02:38.092Z,-0.83
2022-11-28T05:05:18.268Z,-0.75
2022-11-28T05:07:45.888Z,-0.81
2022-11-28T05:10:15.068Z,-0.74
2022-11-28T05:12:43.175Z,-0.87
2022-11-28T05:15:11.244Z,-0.74
2022-11-28T05:17:42.243Z,-0.93
2022-11-28T05:20:11.440Z,-0.99
2022-11-28T05:22:39.014Z,-0.96
2022-11-28T05:25:06.632Z,-1.04
2022-11-28T05:27:34.110Z,-1.07
2022-11-28T05:30:01.339Z,-1.10
2022-11-28T05:32:32.336Z,-1.08
2022-11-28T05:34:59.811Z,-1.20
2022-11-28T05:37:27.243Z,-1.23
2022-11-28T05:39:54.520Z,-1.12
2022-11-28T05:42:22.160Z,-1.11
2022-11-28T05:44:49.817Z,-1.09
2022-11-28T05:47:17.549Z,-1.11
2022-11-28T05:49:47.108Z,-0.91
2022-11-28T05:52:14.693Z,-0.98
2022-11-28T05:54:41.903Z,-1.00
2022-11-28T05:57:09.373Z,-1.05
2022-11-28T05:59:36.797Z,-1.07
2022-11-28T06:02:04.457Z,-1.23
2022-11-28T06:04:31.754Z,-1.16
2022-11-28T06:06:59.258Z,-1.16
2022-11-28T06:09:26.535Z,-1.18
2022-11-28T06:11:54.165Z,-1.15
2022-11-28T06:14:21.472Z,-1.20
2022-11-28T06:16:48.975Z,-1.23
2022-11-28T06:19:16.193Z,-1.25
2022-11-28T06:21:43.833Z,-1.24
2022-11-28T06:24:11.224Z,-1.26
2022-11-28T06:26:38.693Z,-1.27
2022-11-28T06:29:05.866Z,-1.37
2022-11-28T06:31:33.635Z,-1.37
2022-11-28T06:34:00.958Z,-1.33
2022-11-28T06:36:28.630Z,-1.41
2022-11-28T06:38:55.858Z,-1.36
2022-11-28T06:41:23.383Z,-1.28
2022-11-28T06:43:50.726Z,-1.25
2022-11-28T06:46:21.276Z,-1.20
2022-11-28T06:48:50.971Z,-1.21
2022-11-28T06:51:19.724Z,-1.23
2022-11-28T06:53:47.007Z,-1.30
2022-11-28T06:56:17.295Z,-1.31
2022-11-28T06:58:45.761Z,-1.32
2022-11-28T07:01:19.587Z,-1.31
2022-11-28T07:03:48.169Z,-1.33
2022-11-28T07:06:17.878Z,-1.27
2022-11-28T07:08:45.575Z,-1.35
2022-11-28T07:11:16.314Z,-1.26
2022-11-28T07:13:46.115Z,-1.28
2022-11-28T07:16:16.408Z,-1.18
2022-11-28T07:18:44.533Z,-1.18
2022-11-28T07:21:14.745Z,-1.23
2022-11-28T07:23:43.768Z,-1.20
2022-11-28T07:26:13.857Z,-1.28
2022-11-28T07:28:41.515Z,-1.42
2022-11-28T07:31:14.147Z,-1.42
2022-11-28T07:33:45.937Z,-1.42
2022-11-28T07:36:16.084Z,-1.35
2022-11-28T07:38:54.074Z,-1.44
2022-11-28T07:41:26.217Z,-1.49
2022-11-28T07:44:01.396Z,-1.42
2022-11-28T07:46:31.437Z,-1.52
2022-11-28T07:48:59.113Z,-1.61
2022-11-28T07:51:29.514Z,-1.51
2022-11-28T07:53:57.221Z,-1.54
2022-11-28T07:56:39.362Z,-1.47
2022-11-28T07:59:12.214Z,-1.53
2022-11-28T08:01:40.191Z,-1.53
2022-11-28T08:04:09.452Z,-1.44
2022-11-28T08:06:40.327Z,-1.44
2022-11-28T08:09:07.982Z,-1.51
2022-11-28T08:11:38.388Z,-1.49
2022-11-28T08:14:08.231Z,-1.51
2022-11-28T08:16:37.154Z,-1.59
2022-11-28T08:19:04.479Z,-1.43
2022-11-28T08:21:34.545Z,-1.31
2022-11-28T08:24:03.419Z,-1.31
2022-11-28T08:26:32.784Z,-1.15
2022-11-28T08:29:01.411Z,-0.91
2022-11-28T08:31:31.915Z,-0.57
2022-11-28T08:34:01.609Z,-0.29
2022-11-28T08:36:29.701Z,-0.18
2022-11-28T08:39:16.748Z,0.06
2022-11-28T08:41:45.142Z,0.34
2022-11-28T08:44:12.366Z,1.03
2022-11-28T08:46:40.013Z,1.53
2022-11-28T08:49:07.724Z,1.85
2022-11-28T08:51:35.341Z,2.31
2022-11-28T08:54:02.498Z,2.80
2022-11-28T08:56:30.778Z,3.28
2022-11-28T08:58:57.988Z,3.95
2022-11-28T09:01:26.899Z,4.64
2022-11-28T09:03:58.989Z,5.47
2022-11-28T09:06:29.013Z,6.15
2022-11-28T09:09:17.735Z,6.71
2022-11-28T09:11:45.823Z,7.25
2022-11-28T09:14:13.269Z,7.90
2022-11-28T09:16:41.313Z,8.54
2022-11-28T09:19:10.828Z,8.91
2022-11-28T09:21:40.097Z,9.39
2022-11-28T09:24:11.876Z,9.54
2022-11-28T09:26:39.943Z,10.00
2022-11-28T09:29:07.121Z,10.27
2022-11-28T09:31:34.963Z,10.71
2022-11-28T09:34:03.704Z,10.72
2022-11-28T09:36:32.484Z,10.89
2022-11-28T09:39:01.252Z,11.35
2022-11-28T09:41:28.881Z,11.64
2022-11-28T09:44:01.235Z,12.03
2022-11-28T09:46:34.522Z,12.24
2022-11-28T09:49:05.212Z,12.17
2022-11-28T09:51:43.333Z,12.40
2022-11-28T09:54:34.956Z,12.83
2022-11-28T09:57:08.964Z,12.89
2022-11-28T09:59:36.221Z,12.82
2022-11-28T10:02:09.874Z,12.81
2022-11-28T10:05:09.616Z,12.67
2022-11-28T10:08:21.623Z,12.40
2022-11-28T10:11:01.124Z,12.24
2022-11-28T10:14:07.207Z,12.02
2022-11-28T10:16:46.344Z,11.80
2022-11-28T10:19:52.328Z,11.74
2022-11-28T10:22:14.165Z,11.84
2022-11-28T10:24:47.634Z,12.48
2022-11-28T10:27:19.168Z,12.82
2022-11-28T10:30:20.759Z,12.95
2022-11-28T10:32:59.463Z,12.85
2022-11-28T10:35:43.113Z,12.88
2022-11-28T10:38:13.814Z,13.01
2022-11-28T10:40:56.264Z,12.95
2022-11-28T10:43:35.264Z,12.61
2022-11-28T10:46:23.549Z,12.43
2022-11-28T10:49:13.198Z,12.47
2022-11-28T10:52:20.062Z,11.88
2022-11-28T10:55:35.397Z,11.05
2022-11-28T10:58:20.315Z,11.10
2022-11-28T11:00:59.925Z,10.92
2022-11-28T11:03:34.233Z,11.05
2022-11-28T11:06:11.405Z,11.34
2022-11-28T11:08:41.859Z,11.62
2022-11-28T11:11:25.550Z,11.53
2022-11-28T11:14:11.513Z,10.92
2022-11-28T11:16:54.100Z,10.49
2022-11-28T11:19:36.828Z,10.02
2022-11-28T11:22:09.733Z,9.89
2022-11-28T11:24:37.368Z,9.94
2022-11-28T11:27:26.905Z,9.58
2022-11-28T11:29:55.012Z,9.19
2022-11-28T11:32:30.595Z,9.20
2022-11-28T11:34:59.924Z,9.23
2022-11-28T11:37:38.679Z,8.88
2022-11-28T11:40:24.931Z,8.92
2022-11-28T11:42:58.611Z,8.87
2022-11-28T11:45:34.415Z,8.32
2022-11-28T11:48:03.940Z,8.23
2022-11-28T11:50:33.096Z,7.98
2022-11-28T11:53:01.366Z,7.73
2022-11-28T11:55:40.783Z,7.73
2022-11-28T11:58:12.680Z,7.63
2022-11-28T12:00:41.528Z,7.68
2022-11-28T12:03:15.611Z,7.80
2022-11-28T12:06:13.731Z,7.81
2022-11-28T12:08:51.944Z,7.98
2022-11-28T12:11:28.015Z,7.92
2022-11-28T12:14:03.320Z,7.87
2022-11-28T12:17:40.377Z,7.92
2022-11-28T12:20:30.679Z,7.77
2022-11-28T12:23:15.786Z,7.57
2022-11-28T12:26:02.327Z,7.38
